NEW EXCHEQUER-LK MCCLURE (EXC)

Elevation: 879' · MERCED R basin · Operator: Merced Irrigation District

Provisional data, subject to change.
Query executed Friday at 12:08:44   clock

Select a sensor type for a plot of data.
Note: Reservoir Flows are daily averages.

Earlier

Date RES ELE    STORAGE    RES CHG    TOC STO    ABV TOC    OUTFLOW    INFLOW    PPT INC    TEMP MN    TEMP MX    TEMP AV   
 FEET   AF   AF   AF   AF   CFS   CFS   INCHES   DEG F   DEG F   DEG F  
10/29/2014 609.28 91877 -- 686075 -594198 761 0 0.00 -- -- --
10/30/2014 608.54 90902 -- 680338 -589436 426 0 0.00 -- -- --
10/31/2014 607.97 90161 -- 674600 -584439 395 21 1.42 -- -- --
11/01/2014 607.20 89160 -- 674600 -585440 401 0 0.02 -- -- --
11/02/2014 606.77 88601 -- 674600 -585999 224 0 0.00 -- -- --
11/03/2014 606.75 88575 -- 674600 -586025 30 17 0.00 -- -- --
11/04/2014 606.76 88588 -- 674600 -586012 26 32 0.00 -- -- --
11/05/2014 606.76 88588 -52 674600 -- 25 25 0.00 -- -- --
11/06/2014 606.74 88562 -65 674600 -586038 25 12 0.00 -- -- --
11/07/2014 606.12 87756 -351 674600 -586844 357 0 0.00 -- -- --
11/08/2014 604.80 86040 -1183 674600 -588560 778 0 0.00 -- -- --
11/09/2014 603.90 84870 -884 674600 -589730 547 0 0.00 -- -- --
11/10/2014 603.89 84857 -52 674600 -589743 39 32 0.00 -- -- --
11/11/2014 603.87 84831 -39 674600 -589769 41 28 0.00 -- -- --
11/12/2014 603.89 84857 -13 674600 -589743 46 59 0.13 -- -- --
11/13/2014 603.91 84883 0 674600 -589717 40 53 0.00 -- -- --
11/14/2014 603.26 84038 -- 674600 -590562 395 0 0.00 -- -- --
11/15/2014 602.41 82933 -- 674600 -591667 494 0 0.00 -- -- --
11/16/2014 602.06 82478 -338 674600 -- 268 38 0.00 -- -- --
11/17/2014 601.69 81997 -- 674600 -592603 262 19 0.00 -- -- --
11/18/2014 601.31 81503 -- 674600 -593097 257 8 0.00 -- -- --
11/19/2014 600.93 81016 -- 674600 -593584 257 12 0.00 -- -- --
11/20/2014 600.64 80668 -- 674600 -593932 227 52 0.08 -- -- --
11/21/2014 600.32 80284 -- 674600 -- 227 33 0.00 -- -- --
11/22/2014 600.01 79912 -- 674600 -- 242 54 0.09 -- -- --
11/23/2014 599.68 79516 -- 674600 -595084 239 39 0.00 -- -- --
11/24/2014 599.37 79144 -- 674600 -595456 231 44 0.00 -- -- --
11/25/2014 599.09 78808 -- 674600 -595792 238 69 0.00 -- -- --
11/26/2014 598.78 78436 -- 674600 -596164 241 53 0.00 -- -- --
11/27/2014 598.46 78052 -- 674600 -- 238 44 0.00 -- -- --
11/28/2014 -- -- -- -- -- -- -- -- -- -- --

Later | Latest

Warning! This data is preliminary and subject to revision.

Show EXC Map | Plot EXC Data | 1 Month EXC Data | Real-Time EXC Data | EXC Info